sensor_id;sensor_type;location;lat;lon;timestamp;P1;durP1;ratioP1;P2;durP2;ratioP2
14294;SDS011;7231;59.370;18.016;2022-07-22T00:01:48;12.13;;;7.25;;
14294;SDS011;7231;59.370;18.016;2022-07-22T00:04:17;11.82;;;7.55;;
14294;SDS011;7231;59.370;18.016;2022-07-22T00:06:45;8.95;;;7.07;;
14294;SDS011;7231;59.370;18.016;2022-07-22T00:09:13;9.27;;;7.00;;
14294;SDS011;7231;59.370;18.016;2022-07-22T00:11:41;8.95;;;6.95;;
14294;SDS011;7231;59.370;18.016;2022-07-22T00:14:09;8.60;;;6.85;;
14294;SDS011;7231;59.370;18.016;2022-07-22T00:16:40;9.70;;;7.05;;
14294;SDS011;7231;59.370;18.016;2022-07-22T00:19:09;10.73;;;6.93;;
14294;SDS011;7231;59.370;18.016;2022-07-22T00:21:37;9.35;;;6.90;;
14294;SDS011;7231;59.370;18.016;2022-07-22T00:24:05;7.40;;;6.65;;
14294;SDS011;7231;59.370;18.016;2022-07-22T00:26:33;9.13;;;6.55;;
14294;SDS011;7231;59.370;18.016;2022-07-22T00:29:01;9.85;;;7.22;;
14294;SDS011;7231;59.370;18.016;2022-07-22T00:31:29;9.73;;;7.07;;
14294;SDS011;7231;59.370;18.016;2022-07-22T00:34:00;9.13;;;7.07;;
14294;SDS011;7231;59.370;18.016;2022-07-22T00:36:28;11.45;;;7.05;;
14294;SDS011;7231;59.370;18.016;2022-07-22T00:38:57;10.50;;;6.72;;
14294;SDS011;7231;59.370;18.016;2022-07-22T00:41:26;10.00;;;7.00;;
14294;SDS011;7231;59.370;18.016;2022-07-22T00:44:03;10.07;;;7.00;;
14294;SDS011;7231;59.370;18.016;2022-07-22T00:46:34;9.93;;;6.63;;
14294;SDS011;7231;59.370;18.016;2022-07-22T00:49:06;8.77;;;6.85;;
14294;SDS011;7231;59.370;18.016;2022-07-22T00:51:35;12.95;;;7.15;;
14294;SDS011;7231;59.370;18.016;2022-07-22T00:54:06;8.77;;;6.90;;
14294;SDS011;7231;59.370;18.016;2022-07-22T00:56:34;9.90;;;7.00;;
14294;SDS011;7231;59.370;18.016;2022-07-22T00:59:05;11.63;;;6.90;;
14294;SDS011;7231;59.370;18.016;2022-07-22T01:01:35;10.23;;;7.55;;
14294;SDS011;7231;59.370;18.016;2022-07-22T01:04:04;10.60;;;7.47;;
14294;SDS011;7231;59.370;18.016;2022-07-22T01:06:33;10.05;;;7.40;;
14294;SDS011;7231;59.370;18.016;2022-07-22T01:09:01;7.75;;;6.97;;
14294;SDS011;7231;59.370;18.016;2022-07-22T01:11:29;9.38;;;7.40;;
14294;SDS011;7231;59.370;18.016;2022-07-22T01:13:57;10.40;;;7.05;;
14294;SDS011;7231;59.370;18.016;2022-07-22T01:16:25;10.32;;;7.40;;
14294;SDS011;7231;59.370;18.016;2022-07-22T01:18:53;9.00;;;7.43;;
14294;SDS011;7231;59.370;18.016;2022-07-22T01:21:24;7.63;;;6.65;;
14294;SDS011;7231;59.370;18.016;2022-07-22T01:23:52;8.63;;;7.05;;
14294;SDS011;7231;59.370;18.016;2022-07-22T01:26:20;7.78;;;6.95;;
14294;SDS011;7231;59.370;18.016;2022-07-22T01:28:48;12.00;;;7.82;;
14294;SDS011;7231;59.370;18.016;2022-07-22T01:31:16;8.50;;;7.63;;
14294;SDS011;7231;59.370;18.016;2022-07-22T01:33:44;8.38;;;7.47;;
14294;SDS011;7231;59.370;18.016;2022-07-22T01:36:12;10.23;;;7.65;;
14294;SDS011;7231;59.370;18.016;2022-07-22T01:38:42;8.18;;;7.38;;
14294;SDS011;7231;59.370;18.016;2022-07-22T01:41:10;8.98;;;7.38;;
14294;SDS011;7231;59.370;18.016;2022-07-22T01:43:38;12.05;;;7.82;;
14294;SDS011;7231;59.370;18.016;2022-07-22T01:46:06;10.27;;;7.72;;
14294;SDS011;7231;59.370;18.016;2022-07-22T01:48:34;11.30;;;7.85;;
14294;SDS011;7231;59.370;18.016;2022-07-22T01:51:02;11.15;;;7.75;;
14294;SDS011;7231;59.370;18.016;2022-07-22T01:53:31;9.98;;;7.85;;
14294;SDS011;7231;59.370;18.016;2022-07-22T01:56:00;14.70;;;8.23;;
14294;SDS011;7231;59.370;18.016;2022-07-22T01:58:29;11.55;;;7.85;;
14294;SDS011;7231;59.370;18.016;2022-07-22T02:01:05;8.77;;;7.57;;
14294;SDS011;7231;59.370;18.016;2022-07-22T02:03:34;10.25;;;7.43;;
14294;SDS011;7231;59.370;18.016;2022-07-22T02:06:02;11.07;;;8.18;;
14294;SDS011;7231;59.370;18.016;2022-07-22T02:08:31;10.15;;;7.97;;
14294;SDS011;7231;59.370;18.016;2022-07-22T02:11:01;11.13;;;7.90;;
14294;SDS011;7231;59.370;18.016;2022-07-22T02:13:29;11.43;;;7.70;;
14294;SDS011;7231;59.370;18.016;2022-07-22T02:15:57;12.48;;;7.85;;
14294;SDS011;7231;59.370;18.016;2022-07-22T02:18:25;10.57;;;7.80;;
14294;SDS011;7231;59.370;18.016;2022-07-22T02:20:53;10.88;;;8.50;;
14294;SDS011;7231;59.370;18.016;2022-07-22T02:23:21;11.70;;;7.75;;
14294;SDS011;7231;59.370;18.016;2022-07-22T02:25:49;10.35;;;8.07;;
14294;SDS011;7231;59.370;18.016;2022-07-22T02:28:19;10.23;;;7.50;;
14294;SDS011;7231;59.370;18.016;2022-07-22T02:30:47;12.15;;;8.52;;
14294;SDS011;7231;59.370;18.016;2022-07-22T02:33:15;9.38;;;7.82;;
14294;SDS011;7231;59.370;18.016;2022-07-22T02:35:43;10.55;;;7.63;;
14294;SDS011;7231;59.370;18.016;2022-07-22T02:38:11;8.73;;;7.82;;
14294;SDS011;7231;59.370;18.016;2022-07-22T02:40:39;11.35;;;7.93;;
14294;SDS011;7231;59.370;18.016;2022-07-22T02:43:07;8.68;;;7.80;;
14294;SDS011;7231;59.370;18.016;2022-07-22T02:45:37;11.02;;;7.50;;
14294;SDS011;7231;59.370;18.016;2022-07-22T02:48:05;11.10;;;7.85;;
14294;SDS011;7231;59.370;18.016;2022-07-22T02:50:33;10.68;;;7.70;;
14294;SDS011;7231;59.370;18.016;2022-07-22T02:53:02;8.10;;;7.25;;
14294;SDS011;7231;59.370;18.016;2022-07-22T02:55:30;10.35;;;8.00;;
14294;SDS011;7231;59.370;18.016;2022-07-22T02:58:03;11.13;;;7.30;;
14294;SDS011;7231;59.370;18.016;2022-07-22T03:00:32;8.82;;;7.47;;
14294;SDS011;7231;59.370;18.016;2022-07-22T03:03:02;8.52;;;7.18;;
14294;SDS011;7231;59.370;18.016;2022-07-22T03:05:30;10.10;;;7.82;;
14294;SDS011;7231;59.370;18.016;2022-07-22T03:07:58;10.45;;;7.93;;
14294;SDS011;7231;59.370;18.016;2022-07-22T03:10:26;9.25;;;8.35;;
14294;SDS011;7231;59.370;18.016;2022-07-22T03:12:54;8.65;;;7.75;;
14294;SDS011;7231;59.370;18.016;2022-07-22T03:15:22;9.95;;;8.13;;
14294;SDS011;7231;59.370;18.016;2022-07-22T03:17:50;10.15;;;8.45;;
14294;SDS011;7231;59.370;18.016;2022-07-22T03:20:20;13.13;;;8.05;;
14294;SDS011;7231;59.370;18.016;2022-07-22T03:22:48;10.07;;;7.15;;
14294;SDS011;7231;59.370;18.016;2022-07-22T03:25:16;10.18;;;8.02;;
14294;SDS011;7231;59.370;18.016;2022-07-22T03:27:44;11.50;;;8.05;;
14294;SDS011;7231;59.370;18.016;2022-07-22T03:30:12;8.98;;;8.07;;
14294;SDS011;7231;59.370;18.016;2022-07-22T03:32:40;14.27;;;8.13;;
14294;SDS011;7231;59.370;18.016;2022-07-22T03:35:11;11.30;;;7.30;;
14294;SDS011;7231;59.370;18.016;2022-07-22T03:37:41;11.48;;;7.80;;
14294;SDS011;7231;59.370;18.016;2022-07-22T03:40:09;10.80;;;7.82;;
14294;SDS011;7231;59.370;18.016;2022-07-22T03:42:38;8.57;;;7.70;;
14294;SDS011;7231;59.370;18.016;2022-07-22T03:45:11;10.88;;;8.10;;
14294;SDS011;7231;59.370;18.016;2022-07-22T03:47:39;8.48;;;7.63;;
14294;SDS011;7231;59.370;18.016;2022-07-22T03:50:08;9.40;;;7.13;;
14294;SDS011;7231;59.370;18.016;2022-07-22T03:52:37;9.63;;;7.60;;
14294;SDS011;7231;59.370;18.016;2022-07-22T03:55:06;10.02;;;7.70;;
14294;SDS011;7231;59.370;18.016;2022-07-22T03:57:35;9.43;;;7.57;;
14294;SDS011;7231;59.370;18.016;2022-07-22T04:00:03;9.35;;;8.32;;
14294;SDS011;7231;59.370;18.016;2022-07-22T04:02:32;10.40;;;7.43;;
14294;SDS011;7231;59.370;18.016;2022-07-22T04:05:00;9.25;;;7.22;;
14294;SDS011;7231;59.370;18.016;2022-07-22T04:07:28;8.82;;;7.53;;
14294;SDS011;7231;59.370;18.016;2022-07-22T04:09:56;9.68;;;7.43;;
14294;SDS011;7231;59.370;18.016;2022-07-22T04:12:34;8.88;;;7.72;;
14294;SDS011;7231;59.370;18.016;2022-07-22T04:15:03;11.40;;;7.60;;
14294;SDS011;7231;59.370;18.016;2022-07-22T04:17:33;9.20;;;7.45;;
14294;SDS011;7231;59.370;18.016;2022-07-22T04:20:01;8.65;;;7.72;;
14294;SDS011;7231;59.370;18.016;2022-07-22T04:22:30;8.63;;;7.30;;
14294;SDS011;7231;59.370;18.016;2022-07-22T04:24:58;7.88;;;6.80;;
14294;SDS011;7231;59.370;18.016;2022-07-22T04:27:26;9.90;;;8.02;;
14294;SDS011;7231;59.370;18.016;2022-07-22T04:29:56;8.73;;;7.32;;
14294;SDS011;7231;59.370;18.016;2022-07-22T04:32:24;8.52;;;7.63;;
14294;SDS011;7231;59.370;18.016;2022-07-22T04:34:52;9.13;;;7.32;;
14294;SDS011;7231;59.370;18.016;2022-07-22T04:37:20;10.43;;;8.07;;
14294;SDS011;7231;59.370;18.016;2022-07-22T04:39:48;9.27;;;7.10;;
14294;SDS011;7231;59.370;18.016;2022-07-22T04:42:16;9.82;;;7.50;;
14294;SDS011;7231;59.370;18.016;2022-07-22T04:44:44;8.27;;;6.97;;
14294;SDS011;7231;59.370;18.016;2022-07-22T04:47:14;8.25;;;6.68;;
14294;SDS011;7231;59.370;18.016;2022-07-22T04:49:43;9.30;;;7.40;;
14294;SDS011;7231;59.370;18.016;2022-07-22T04:52:11;9.88;;;7.75;;
14294;SDS011;7231;59.370;18.016;2022-07-22T04:54:39;7.72;;;6.93;;
14294;SDS011;7231;59.370;18.016;2022-07-22T04:57:07;10.13;;;7.80;;
14294;SDS011;7231;59.370;18.016;2022-07-22T04:59:35;9.73;;;7.25;;
14294;SDS011;7231;59.370;18.016;2022-07-22T05:02:03;11.73;;;7.65;;
14294;SDS011;7231;59.370;18.016;2022-07-22T05:04:33;10.05;;;8.00;;
14294;SDS011;7231;59.370;18.016;2022-07-22T05:07:01;8.00;;;7.10;;
14294;SDS011;7231;59.370;18.016;2022-07-22T05:09:29;9.00;;;7.18;;
14294;SDS011;7231;59.370;18.016;2022-07-22T05:11:57;8.30;;;7.43;;
14294;SDS011;7231;59.370;18.016;2022-07-22T05:14:26;8.07;;;7.10;;
14294;SDS011;7231;59.370;18.016;2022-07-22T05:16:54;11.35;;;7.82;;
14294;SDS011;7231;59.370;18.016;2022-07-22T05:19:22;10.00;;;7.43;;
14294;SDS011;7231;59.370;18.016;2022-07-22T05:21:51;10.73;;;7.50;;
14294;SDS011;7231;59.370;18.016;2022-07-22T05:24:19;9.30;;;7.63;;
14294;SDS011;7231;59.370;18.016;2022-07-22T05:26:47;8.95;;;7.53;;
14294;SDS011;7231;59.370;18.016;2022-07-22T05:29:15;7.53;;;6.72;;
14294;SDS011;7231;59.370;18.016;2022-07-22T05:31:43;9.75;;;7.93;;
14294;SDS011;7231;59.370;18.016;2022-07-22T05:34:12;9.60;;;7.43;;
14294;SDS011;7231;59.370;18.016;2022-07-22T05:36:40;9.30;;;7.57;;
14294;SDS011;7231;59.370;18.016;2022-07-22T05:39:09;9.63;;;7.15;;
14294;SDS011;7231;59.370;18.016;2022-07-22T05:41:37;9.75;;;7.00;;
14294;SDS011;7231;59.370;18.016;2022-07-22T05:44:06;10.20;;;6.85;;
14294;SDS011;7231;59.370;18.016;2022-07-22T05:46:34;9.20;;;6.95;;
14294;SDS011;7231;59.370;18.016;2022-07-22T05:49:02;12.75;;;7.30;;
14294;SDS011;7231;59.370;18.016;2022-07-22T05:51:30;9.65;;;7.55;;
14294;SDS011;7231;59.370;18.016;2022-07-22T05:54:00;11.05;;;7.55;;
14294;SDS011;7231;59.370;18.016;2022-07-22T05:56:31;11.25;;;8.10;;
14294;SDS011;7231;59.370;18.016;2022-07-22T05:58:59;8.30;;;7.28;;
14294;SDS011;7231;59.370;18.016;2022-07-22T06:01:27;8.80;;;7.55;;
14294;SDS011;7231;59.370;18.016;2022-07-22T06:03:55;10.18;;;7.60;;
14294;SDS011;7231;59.370;18.016;2022-07-22T06:06:23;9.15;;;7.63;;
14294;SDS011;7231;59.370;18.016;2022-07-22T06:08:51;10.05;;;8.25;;
14294;SDS011;7231;59.370;18.016;2022-07-22T06:11:20;10.00;;;7.47;;
14294;SDS011;7231;59.370;18.016;2022-07-22T06:13:50;10.52;;;7.97;;
14294;SDS011;7231;59.370;18.016;2022-07-22T06:16:19;9.60;;;7.38;;
14294;SDS011;7231;59.370;18.016;2022-07-22T06:18:47;9.27;;;8.27;;
14294;SDS011;7231;59.370;18.016;2022-07-22T06:21:15;9.50;;;7.45;;
14294;SDS011;7231;59.370;18.016;2022-07-22T06:23:43;10.35;;;7.38;;
14294;SDS011;7231;59.370;18.016;2022-07-22T06:26:11;9.02;;;7.40;;
14294;SDS011;7231;59.370;18.016;2022-07-22T06:28:39;8.30;;;7.43;;
14294;SDS011;7231;59.370;18.016;2022-07-22T06:31:09;8.55;;;7.18;;
14294;SDS011;7231;59.370;18.016;2022-07-22T06:33:37;13.25;;;7.45;;
14294;SDS011;7231;59.370;18.016;2022-07-22T06:36:05;10.60;;;7.80;;
14294;SDS011;7231;59.370;18.016;2022-07-22T06:38:34;8.32;;;6.90;;
14294;SDS011;7231;59.370;18.016;2022-07-22T06:41:07;11.30;;;7.53;;
14294;SDS011;7231;59.370;18.016;2022-07-22T06:43:35;9.77;;;7.35;;
14294;SDS011;7231;59.370;18.016;2022-07-22T06:46:03;10.07;;;7.38;;
14294;SDS011;7231;59.370;18.016;2022-07-22T06:48:33;8.27;;;6.97;;
14294;SDS011;7231;59.370;18.016;2022-07-22T06:51:01;7.93;;;6.90;;
14294;SDS011;7231;59.370;18.016;2022-07-22T06:53:29;8.48;;;6.63;;
14294;SDS011;7231;59.370;18.016;2022-07-22T06:55:57;11.00;;;6.78;;
14294;SDS011;7231;59.370;18.016;2022-07-22T06:58:32;9.80;;;7.18;;
14294;SDS011;7231;59.370;18.016;2022-07-22T07:01:00;9.35;;;7.40;;
14294;SDS011;7231;59.370;18.016;2022-07-22T07:03:28;7.68;;;6.88;;
14294;SDS011;7231;59.370;18.016;2022-07-22T07:06:02;8.15;;;7.22;;
14294;SDS011;7231;59.370;18.016;2022-07-22T07:08:30;9.57;;;7.63;;
14294;SDS011;7231;59.370;18.016;2022-07-22T07:10:59;9.82;;;7.30;;
14294;SDS011;7231;59.370;18.016;2022-07-22T07:13:27;9.60;;;7.30;;
14294;SDS011;7231;59.370;18.016;2022-07-22T07:15:55;9.20;;;6.88;;
14294;SDS011;7231;59.370;18.016;2022-07-22T07:18:24;10.13;;;7.20;;
14294;SDS011;7231;59.370;18.016;2022-07-22T07:20:52;7.70;;;6.85;;
14294;SDS011;7231;59.370;18.016;2022-07-22T07:23:22;9.60;;;7.00;;
14294;SDS011;7231;59.370;18.016;2022-07-22T07:25:50;9.70;;;7.40;;
14294;SDS011;7231;59.370;18.016;2022-07-22T07:28:19;9.68;;;7.40;;
14294;SDS011;7231;59.370;18.016;2022-07-22T07:30:47;8.30;;;6.93;;
14294;SDS011;7231;59.370;18.016;2022-07-22T07:33:16;11.30;;;7.22;;
14294;SDS011;7231;59.370;18.016;2022-07-22T07:35:44;11.40;;;6.68;;
14294;SDS011;7231;59.370;18.016;2022-07-22T07:38:12;8.98;;;6.65;;
14294;SDS011;7231;59.370;18.016;2022-07-22T07:40:42;9.10;;;6.60;;
14294;SDS011;7231;59.370;18.016;2022-07-22T07:43:10;7.70;;;6.90;;
14294;SDS011;7231;59.370;18.016;2022-07-22T07:45:38;8.82;;;7.18;;
14294;SDS011;7231;59.370;18.016;2022-07-22T07:48:06;11.25;;;6.88;;
14294;SDS011;7231;59.370;18.016;2022-07-22T07:50:34;7.95;;;6.53;;
14294;SDS011;7231;59.370;18.016;2022-07-22T07:53:03;9.18;;;6.60;;
14294;SDS011;7231;59.370;18.016;2022-07-22T07:55:33;7.75;;;6.63;;
14294;SDS011;7231;59.370;18.016;2022-07-22T07:58:05;6.93;;;6.22;;
14294;SDS011;7231;59.370;18.016;2022-07-22T08:00:34;8.07;;;6.70;;
14294;SDS011;7231;59.370;18.016;2022-07-22T08:03:03;7.72;;;6.30;;
14294;SDS011;7231;59.370;18.016;2022-07-22T08:05:32;10.48;;;6.40;;
14294;SDS011;7231;59.370;18.016;2022-07-22T08:08:01;9.50;;;6.22;;
14294;SDS011;7231;59.370;18.016;2022-07-22T08:10:40;9.60;;;6.40;;
14294;SDS011;7231;59.370;18.016;2022-07-22T08:13:27;10.50;;;6.57;;
14294;SDS011;7231;59.370;18.016;2022-07-22T08:15:56;8.77;;;5.78;;
14294;SDS011;7231;59.370;18.016;2022-07-22T08:18:25;7.63;;;5.28;;
14294;SDS011;7231;59.370;18.016;2022-07-22T08:20:53;9.93;;;5.18;;
14294;SDS011;7231;59.370;18.016;2022-07-22T08:23:21;7.43;;;5.03;;
14294;SDS011;7231;59.370;18.016;2022-07-22T08:25:52;7.38;;;4.95;;
14294;SDS011;7231;59.370;18.016;2022-07-22T08:28:20;6.28;;;4.63;;
14294;SDS011;7231;59.370;18.016;2022-07-22T08:30:49;6.05;;;4.60;;
14294;SDS011;7231;59.370;18.016;2022-07-22T08:33:17;6.38;;;4.68;;
14294;SDS011;7231;59.370;18.016;2022-07-22T08:35:45;7.53;;;4.22;;
14294;SDS011;7231;59.370;18.016;2022-07-22T08:38:13;6.70;;;4.90;;
14294;SDS011;7231;59.370;18.016;2022-07-22T08:40:41;7.72;;;4.90;;
14294;SDS011;7231;59.370;18.016;2022-07-22T08:43:09;8.02;;;4.55;;
14294;SDS011;7231;59.370;18.016;2022-07-22T08:45:38;9.55;;;4.82;;
14294;SDS011;7231;59.370;18.016;2022-07-22T08:48:08;9.15;;;5.35;;
14294;SDS011;7231;59.370;18.016;2022-07-22T08:50:36;5.43;;;4.68;;
14294;SDS011;7231;59.370;18.016;2022-07-22T08:53:07;8.80;;;4.50;;
14294;SDS011;7231;59.370;18.016;2022-07-22T08:55:39;6.35;;;4.60;;
14294;SDS011;7231;59.370;18.016;2022-07-22T08:58:08;8.82;;;4.93;;
14294;SDS011;7231;59.370;18.016;2022-07-22T09:00:36;7.53;;;4.68;;
14294;SDS011;7231;59.370;18.016;2022-07-22T09:03:17;7.97;;;4.55;;
14294;SDS011;7231;59.370;18.016;2022-07-22T09:05:48;8.65;;;5.07;;
14294;SDS011;7231;59.370;18.016;2022-07-22T09:08:17;8.05;;;4.70;;
14294;SDS011;7231;59.370;18.016;2022-07-22T09:10:46;9.85;;;4.95;;
14294;SDS011;7231;59.370;18.016;2022-07-22T09:13:14;6.32;;;4.50;;
14294;SDS011;7231;59.370;18.016;2022-07-22T09:15:45;7.75;;;4.55;;
14294;SDS011;7231;59.370;18.016;2022-07-22T09:18:18;8.70;;;4.70;;
14294;SDS011;7231;59.370;18.016;2022-07-22T09:20:46;8.27;;;4.50;;
14294;SDS011;7231;59.370;18.016;2022-07-22T09:23:15;9.45;;;4.65;;
14294;SDS011;7231;59.370;18.016;2022-07-22T09:25:46;8.32;;;4.80;;
14294;SDS011;7231;59.370;18.016;2022-07-22T09:28:17;8.80;;;5.22;;
14294;SDS011;7231;59.370;18.016;2022-07-22T09:30:49;8.05;;;4.88;;
14294;SDS011;7231;59.370;18.016;2022-07-22T09:33:23;7.95;;;5.05;;
14294;SDS011;7231;59.370;18.016;2022-07-22T09:35:52;9.00;;;4.57;;
14294;SDS011;7231;59.370;18.016;2022-07-22T09:38:28;10.75;;;5.28;;
14294;SDS011;7231;59.370;18.016;2022-07-22T09:40:58;8.65;;;4.90;;
14294;SDS011;7231;59.370;18.016;2022-07-22T09:43:26;8.07;;;4.50;;
14294;SDS011;7231;59.370;18.016;2022-07-22T09:45:59;7.97;;;4.97;;
14294;SDS011;7231;59.370;18.016;2022-07-22T09:48:28;8.68;;;4.72;;
14294;SDS011;7231;59.370;18.016;2022-07-22T09:50:57;8.43;;;4.53;;
14294;SDS011;7231;59.370;18.016;2022-07-22T09:53:27;6.32;;;4.63;;
14294;SDS011;7231;59.370;18.016;2022-07-22T09:55:56;8.75;;;4.60;;
14294;SDS011;7231;59.370;18.016;2022-07-22T09:58:25;9.23;;;4.93;;
14294;SDS011;7231;59.370;18.016;2022-07-22T10:00:55;8.55;;;4.82;;
14294;SDS011;7231;59.370;18.016;2022-07-22T10:03:27;8.75;;;4.43;;
14294;SDS011;7231;59.370;18.016;2022-07-22T10:05:58;7.32;;;4.50;;
14294;SDS011;7231;59.370;18.016;2022-07-22T10:08:29;8.75;;;4.88;;
14294;SDS011;7231;59.370;18.016;2022-07-22T10:11:00;8.52;;;4.93;;
14294;SDS011;7231;59.370;18.016;2022-07-22T10:13:29;7.40;;;4.55;;
14294;SDS011;7231;59.370;18.016;2022-07-22T10:15:59;7.28;;;4.65;;
14294;SDS011;7231;59.370;18.016;2022-07-22T10:18:29;8.60;;;5.07;;
14294;SDS011;7231;59.370;18.016;2022-07-22T10:21:02;6.65;;;5.03;;
14294;SDS011;7231;59.370;18.016;2022-07-22T10:23:31;8.50;;;5.20;;
14294;SDS011;7231;59.370;18.016;2022-07-22T10:26:00;7.13;;;5.28;;
14294;SDS011;7231;59.370;18.016;2022-07-22T10:28:30;9.27;;;5.40;;
14294;SDS011;7231;59.370;18.016;2022-07-22T10:31:16;9.93;;;5.82;;
14294;SDS011;7231;59.370;18.016;2022-07-22T10:33:49;10.18;;;5.60;;
14294;SDS011;7231;59.370;18.016;2022-07-22T10:36:31;7.82;;;5.97;;
14294;SDS011;7231;59.370;18.016;2022-07-22T10:39:02;7.68;;;5.53;;
14294;SDS011;7231;59.370;18.016;2022-07-22T10:41:33;6.93;;;5.70;;
14294;SDS011;7231;59.370;18.016;2022-07-22T10:44:02;10.88;;;6.03;;
14294;SDS011;7231;59.370;18.016;2022-07-22T10:46:50;8.55;;;5.88;;
14294;SDS011;7231;59.370;18.016;2022-07-22T10:49:21;7.72;;;6.28;;
14294;SDS011;7231;59.370;18.016;2022-07-22T10:52:10;11.07;;;6.85;;
14294;SDS011;7231;59.370;18.016;2022-07-22T10:57:44;8.20;;;6.57;;
14294;SDS011;7231;59.370;18.016;2022-07-22T11:00:13;9.15;;;6.93;;
14294;SDS011;7231;59.370;18.016;2022-07-22T11:02:41;11.98;;;7.07;;
14294;SDS011;7231;59.370;18.016;2022-07-22T11:05:10;10.18;;;7.90;;
14294;SDS011;7231;59.370;18.016;2022-07-22T11:07:41;10.55;;;7.40;;
14294;SDS011;7231;59.370;18.016;2022-07-22T11:10:10;11.18;;;7.20;;
14294;SDS011;7231;59.370;18.016;2022-07-22T11:12:44;9.90;;;7.47;;
14294;SDS011;7231;59.370;18.016;2022-07-22T11:15:12;12.15;;;7.55;;
14294;SDS011;7231;59.370;18.016;2022-07-22T11:17:40;11.32;;;7.22;;
14294;SDS011;7231;59.370;18.016;2022-07-22T11:20:09;10.38;;;7.82;;
14294;SDS011;7231;59.370;18.016;2022-07-22T11:22:40;13.07;;;7.88;;
14294;SDS011;7231;59.370;18.016;2022-07-22T11:25:09;13.65;;;7.90;;
14294;SDS011;7231;59.370;18.016;2022-07-22T11:27:39;10.00;;;8.25;;
14294;SDS011;7231;59.370;18.016;2022-07-22T11:30:07;12.10;;;7.90;;
14294;SDS011;7231;59.370;18.016;2022-07-22T11:32:41;14.35;;;7.65;;
14294;SDS011;7231;59.370;18.016;2022-07-22T11:35:12;11.70;;;7.35;;
14294;SDS011;7231;59.370;18.016;2022-07-22T11:37:40;14.07;;;8.23;;
14294;SDS011;7231;59.370;18.016;2022-07-22T11:40:09;12.05;;;8.07;;
14294;SDS011;7231;59.370;18.016;2022-07-22T11:42:38;10.93;;;7.85;;
14294;SDS011;7231;59.370;18.016;2022-07-22T11:45:06;11.93;;;8.32;;
14294;SDS011;7231;59.370;18.016;2022-07-22T11:47:35;11.32;;;8.32;;
14294;SDS011;7231;59.370;18.016;2022-07-22T11:50:03;13.73;;;8.32;;
14294;SDS011;7231;59.370;18.016;2022-07-22T11:52:33;12.18;;;8.25;;
14294;SDS011;7231;59.370;18.016;2022-07-22T11:55:01;10.85;;;7.78;;
14294;SDS011;7231;59.370;18.016;2022-07-22T11:57:31;14.88;;;8.23;;
14294;SDS011;7231;59.370;18.016;2022-07-22T12:00:05;11.00;;;8.18;;
14294;SDS011;7231;59.370;18.016;2022-07-22T12:02:34;12.60;;;8.25;;
14294;SDS011;7231;59.370;18.016;2022-07-22T12:05:03;13.35;;;7.97;;
14294;SDS011;7231;59.370;18.016;2022-07-22T12:07:53;13.25;;;9.93;;
14294;SDS011;7231;59.370;18.016;2022-07-22T12:10:23;11.43;;;8.95;;
14294;SDS011;7231;59.370;18.016;2022-07-22T12:12:51;13.70;;;8.77;;
14294;SDS011;7231;59.370;18.016;2022-07-22T12:15:21;12.23;;;8.27;;
14294;SDS011;7231;59.370;18.016;2022-07-22T12:18:19;13.25;;;8.40;;
14294;SDS011;7231;59.370;18.016;2022-07-22T12:20:48;14.50;;;9.20;;
14294;SDS011;7231;59.370;18.016;2022-07-22T12:23:21;14.80;;;9.27;;
14294;SDS011;7231;59.370;18.016;2022-07-22T12:25:55;12.52;;;7.93;;
14294;SDS011;7231;59.370;18.016;2022-07-22T12:28:25;11.65;;;7.72;;
14294;SDS011;7231;59.370;18.016;2022-07-22T12:30:54;12.80;;;9.13;;
14294;SDS011;7231;59.370;18.016;2022-07-22T12:33:23;14.38;;;8.38;;
14294;SDS011;7231;59.370;18.016;2022-07-22T12:35:58;12.82;;;8.45;;
14294;SDS011;7231;59.370;18.016;2022-07-22T12:38:30;16.17;;;9.98;;
14294;SDS011;7231;59.370;18.016;2022-07-22T12:43:51;13.13;;;9.55;;
14294;SDS011;7231;59.370;18.016;2022-07-22T12:46:20;13.55;;;9.00;;
14294;SDS011;7231;59.370;18.016;2022-07-22T12:48:50;13.82;;;9.02;;
14294;SDS011;7231;59.370;18.016;2022-07-22T12:51:18;15.55;;;9.95;;
14294;SDS011;7231;59.370;18.016;2022-07-22T12:53:48;12.52;;;9.25;;
14294;SDS011;7231;59.370;18.016;2022-07-22T12:56:16;11.02;;;8.63;;
14294;SDS011;7231;59.370;18.016;2022-07-22T12:58:47;12.90;;;8.85;;
14294;SDS011;7231;59.370;18.016;2022-07-22T13:01:15;13.75;;;9.57;;
14294;SDS011;7231;59.370;18.016;2022-07-22T13:03:43;13.35;;;9.80;;
14294;SDS011;7231;59.370;18.016;2022-07-22T13:06:11;15.18;;;9.95;;
14294;SDS011;7231;59.370;18.016;2022-07-22T13:08:39;15.35;;;9.43;;
14294;SDS011;7231;59.370;18.016;2022-07-22T13:11:13;16.88;;;8.57;;
14294;SDS011;7231;59.370;18.016;2022-07-22T13:13:42;12.65;;;8.77;;
14294;SDS011;7231;59.370;18.016;2022-07-22T13:16:12;12.55;;;8.25;;
14294;SDS011;7231;59.370;18.016;2022-07-22T13:18:40;13.13;;;8.40;;
14294;SDS011;7231;59.370;18.016;2022-07-22T13:21:08;10.50;;;8.02;;
14294;SDS011;7231;59.370;18.016;2022-07-22T13:23:36;12.23;;;7.38;;
14294;SDS011;7231;59.370;18.016;2022-07-22T13:26:04;11.27;;;7.97;;
14294;SDS011;7231;59.370;18.016;2022-07-22T13:28:35;10.60;;;8.35;;
14294;SDS011;7231;59.370;18.016;2022-07-22T13:31:03;10.38;;;8.77;;
14294;SDS011;7231;59.370;18.016;2022-07-22T13:33:31;11.63;;;8.57;;
14294;SDS011;7231;59.370;18.016;2022-07-22T13:35:59;10.30;;;7.85;;
14294;SDS011;7231;59.370;18.016;2022-07-22T13:38:27;12.15;;;8.15;;
14294;SDS011;7231;59.370;18.016;2022-07-22T13:40:55;11.52;;;7.93;;
14294;SDS011;7231;59.370;18.016;2022-07-22T13:43:24;9.40;;;7.13;;
14294;SDS011;7231;59.370;18.016;2022-07-22T13:45:54;9.38;;;7.35;;
14294;SDS011;7231;59.370;18.016;2022-07-22T13:48:22;9.80;;;7.78;;
14294;SDS011;7231;59.370;18.016;2022-07-22T13:50:52;13.30;;;7.75;;
14294;SDS011;7231;59.370;18.016;2022-07-22T13:53:19;11.30;;;7.95;;
14294;SDS011;7231;59.370;18.016;2022-07-22T13:55:48;11.10;;;7.60;;
14294;SDS011;7231;59.370;18.016;2022-07-22T13:58:16;11.00;;;7.20;;
14294;SDS011;7231;59.370;18.016;2022-07-22T14:00:44;9.55;;;7.15;;
14294;SDS011;7231;59.370;18.016;2022-07-22T14:03:13;10.65;;;7.18;;
14294;SDS011;7231;59.370;18.016;2022-07-22T14:05:42;10.68;;;7.38;;
14294;SDS011;7231;59.370;18.016;2022-07-22T14:08:11;10.70;;;7.22;;
14294;SDS011;7231;59.370;18.016;2022-07-22T14:10:39;10.75;;;7.55;;
14294;SDS011;7231;59.370;18.016;2022-07-22T14:13:07;9.85;;;7.35;;
14294;SDS011;7231;59.370;18.016;2022-07-22T14:15:35;12.40;;;8.00;;
14294;SDS011;7231;59.370;18.016;2022-07-22T14:18:03;11.20;;;7.30;;
14294;SDS011;7231;59.370;18.016;2022-07-22T14:20:35;11.02;;;7.85;;
14294;SDS011;7231;59.370;18.016;2022-07-22T14:23:03;9.50;;;7.13;;
14294;SDS011;7231;59.370;18.016;2022-07-22T14:25:32;10.25;;;7.65;;
14294;SDS011;7231;59.370;18.016;2022-07-22T14:28:00;10.63;;;7.10;;
14294;SDS011;7231;59.370;18.016;2022-07-22T14:30:48;14.48;;;8.48;;
14294;SDS011;7231;59.370;18.016;2022-07-22T14:33:16;8.73;;;6.80;;
14294;SDS011;7231;59.370;18.016;2022-07-22T14:35:46;10.82;;;7.40;;
14294;SDS011;7231;59.370;18.016;2022-07-22T14:38:14;11.25;;;8.43;;
14294;SDS011;7231;59.370;18.016;2022-07-22T14:40:42;8.65;;;7.30;;
14294;SDS011;7231;59.370;18.016;2022-07-22T14:43:10;12.25;;;7.65;;
14294;SDS011;7231;59.370;18.016;2022-07-22T14:45:58;9.35;;;7.95;;
14294;SDS011;7231;59.370;18.016;2022-07-22T14:48:26;9.52;;;7.80;;
14294;SDS011;7231;59.370;18.016;2022-07-22T14:50:55;11.23;;;7.55;;
14294;SDS011;7231;59.370;18.016;2022-07-22T14:53:24;10.35;;;7.50;;
14294;SDS011;7231;59.370;18.016;2022-07-22T14:55:52;14.57;;;8.05;;
14294;SDS011;7231;59.370;18.016;2022-07-22T14:58:20;10.75;;;7.22;;
14294;SDS011;7231;59.370;18.016;2022-07-22T15:00:48;9.60;;;7.45;;